Wednesday, February 21, 2018, 8:09 PM EST
Back to Local

KORE, Orange, Orange Municipal Airport

Location: Orange, MA, United States Lat: 42.572
Local Time: 8:09 PM EST ( 1:09 GMT) Lon: -72.278
Time Zone: US/Eastern Elev: 554 ft

Show me the last for .
Show Decoded

2018-02-21 19:52 METAR KORE 220052Z AUTO 30007KT 10SM BKN029 OVC060 15/10 A3031 RMK AO2 SLP266
                 T01500100 $ =
2018-02-21 18:52 METAR KORE 212352Z AUTO 30013G23KT 10SM OVC065 17/11 A3028 RMK AO2 SLP255
                 T01670106 10233 20167 53057 $ =
2018-02-21 17:52 METAR KORE 212252Z AUTO 30014G22KT 10SM BKN055 OVC095 19/12 A3022 RMK AO2 PK WND
                 30028/2222 WSHFT 2211 PRESRR SLP235 T01890117 $ =
2018-02-21 17:31 METAR KORE 212231Z AUTO 30018G28KT 10SM BKN055 20/12 A3019 RMK AO2 PK WND
                 30028/2222 WSHFT 2211 PRESRR T02000122 $ =
2018-02-21 16:52 METAR KORE 212152Z AUTO 23010G23KT 10SM BKN060 23/12 A3012 RMK AO2 SLP202
                 T02330122 $ =
2018-02-21 15:52 METAR KORE 212052Z AUTO 18010KT 10SM SCT060 22/13 A3011 RMK AO2 SLP197 T02170133
                 55007 $ =
2018-02-21 14:52 METAR KORE 211952Z AUTO 19014KT 10SM CLR 21/14 A3010 RMK AO2 SLP195 T02110139 $
                 =
2018-02-21 13:52 METAR KORE 211852Z AUTO 17009KT 10SM CLR 21/14 A3011 RMK AO2 SLP197 T02060139 $
                 =
2018-02-21 12:52 METAR KORE 211752Z AUTO 18008KT 10SM CLR 19/14 A3013 RMK AO2 SLP205 T01890139
                 10189 20033 58030 $ =
2018-02-21 11:52 METAR KORE 211652Z AUTO 16011KT 10SM CLR 17/14 A3017 RMK AO2 SLP219 T01670139 $
                 =
2018-02-21 11:30 METAR KORE 211630Z AUTO 17011KT 10SM SCT014 16/14 A3018 RMK AO2 T01610139 $ =
2018-02-21 10:52 METAR KORE 211552Z AUTO 17007KT 10SM OVC011 15/13 A3021 RMK AO2 SLP231 T01500133
                 $ =
2018-02-21 10:13 METAR KORE 211513Z AUTO 17008KT 10SM OVC010 14/13 A3022 RMK AO2 T01390133 $ =
2018-02-21 09:52 METAR KORE 211452Z AUTO 17007KT 8SM OVC009 13/13 A3022 RMK AO2 SLP235 T01330133
                 58005 $ =
2018-02-21 08:52 METAR KORE 211352Z AUTO 17008KT 4SM BR OVC006 12/12 A3022 RMK AO2 CIG 004V010
                 SLP239 T01220122 $ =
2018-02-21 08:29 METAR KORE 211329Z AUTO 18008KT 4SM BR OVC007 12/12 A3023 RMK AO2 T01220122 $ =
2018-02-21 08:21 METAR KORE 211321Z AUTO 18007KT 2SM BR OVC007 12/12 A3023 RMK AO2 T01220122 $ =
2018-02-21 07:52 METAR KORE 211252Z AUTO 00000KT 1/4SM FG VV007 05/05 A3023 RMK AO2 SLP241
                 T00500050 $ =
2018-02-21 07:26 METAR KORE 211226Z AUTO 00000KT 1/4SM FG VV006 04/04 A3024 RMK AO2 T00390039 $ =
2018-02-21 07:17 METAR KORE 211217Z AUTO 32004KT 1/4SM FG VV005 04/04 A3023 RMK AO2 T00390039 $ =
2018-02-21 06:52 METAR KORE 211152Z AUTO 00000KT 1/4SM FG VV002 03/03 A3023 RMK AO2 SLP242
                 T00330033 10033 20006 55006 $ =
2018-02-21 05:52 METAR KORE 211052Z AUTO 00000KT 1/2SM FG VV002 02/02 A3023 RMK AO2 SLP241
                 T00220022 $ =
2018-02-21 05:40 METAR KORE 211040Z AUTO 32003KT 3/4SM BR VV003 02/02 A3023 RMK AO2 T00220022 $ =
2018-02-21 05:28 METAR KORE 211028Z AUTO 34003KT 1 1/4SM BR OVC003 02/02 A3023 RMK AO2 T00170017
                 $ =
2018-02-21 04:52 METAR KORE 210952Z AUTO 34003KT 1/4SM FG VV002 02/02 A3023 RMK AO2 SLP241
                 T00170017 $ =
2018-02-21 03:52 METAR KORE 210852Z AUTO 00000KT 1/4SM FG VV002 01/01 A3025 RMK AO2 SLP247
                 T00060006 56008 $ =
2018-02-21 02:52 METAR KORE 210752Z AUTO 00000KT 1/2SM FG VV002 01/01 A3026 RMK AO2 SLP250
                 T00110011 $ =
2018-02-21 02:44 METAR KORE 210744Z AUTO 00000KT 1SM BR VV002 01/01 A3026 RMK AO2 T00110011 $ =
2018-02-21 02:42 METAR KORE 210742Z AUTO 00000KT 1 1/2SM BR OVC002 02/02 A3026 RMK AO2 T00170017
                 $ =
2018-02-21 02:30 METAR KORE 210730Z AUTO 00000KT 10SM OVC003 02/02 A3026 RMK AO2 T00170017 $ =
2018-02-21 02:23 METAR KORE 210723Z AUTO 00000KT 2 1/2SM BR OVC003 01/01 A3026 RMK AO2 T00110011
                 $ =
2018-02-21 02:20 METAR KORE 210720Z AUTO 00000KT 1 1/4SM BR OVC003 02/02 A3027 RMK AO2 T00170017
                 $ =
2018-02-21 02:13 METAR KORE 210713Z AUTO 00000KT 1/2SM FG VV003 02/02 A3027 RMK AO2 T00170017 $ =
2018-02-21 02:06 METAR KORE 210706Z AUTO 00000KT 1SM BR VV003 02/02 A3027 RMK AO2 T00170017 $ =
2018-02-21 02:04 METAR KORE 210704Z AUTO 00000KT 1 1/2SM BR BKN003 02/02 A3027 RMK AO2 T00170017
                 $ =
2018-02-21 01:59 METAR KORE 210659Z AUTO 00000KT 5SM BR BKN003 02/02 A3027 RMK AO2 T00170017 $ =
2018-02-21 01:52 METAR KORE 210652Z AUTO 00000KT 6SM BR FEW001 SCT005 02/02 A3027 RMK AO2 SLP255
                 T00170017 $ =
2018-02-21 00:52 METAR KORE 210552Z AUTO 00000KT 3SM BR SCT005 02/02 A3027 RMK AO2 SLP255
                 T00220022 10111 20022 50001 $ =
2018-02-21 00:48 METAR KORE 210548Z AUTO 00000KT 1 1/2SM BR SCT005 02/02 A3027 RMK AO2 $ =
2018-02-21 00:44 METAR KORE 210544Z AUTO 00000KT 1SM BR VV005 02/02 A3027 RMK AO2 T00220022 $ =
2018-02-21 00:36 METAR KORE 210536Z AUTO 00000KT 1SM BR VV004 02/02 A3028 RMK AO2 VIS 3/4V5
                 T00220022 $ =
2018-02-21 00:34 METAR KORE 210534Z AUTO 00000KT 1 1/2SM BR FEW004 03/03 A3028 RMK AO2 VIS 3/4V5
                 T00280028 $ =
2018-02-20 23:52 METAR KORE 210452Z AUTO 00000KT 10SM CLR 03/03 A3028 RMK AO2 SLP260 T00280028
                 401610028 $ =
2018-02-20 23:28 METAR KORE 210428Z AUTO 00000KT 3SM BR CLR 03/03 A3028 RMK AO2 T00330033 $ =
2018-02-20 23:18 METAR KORE 210418Z AUTO 00000KT 1 3/4SM BR CLR 03/03 A3028 RMK AO2 T00330033 $ =
2018-02-20 22:52 METAR KORE 210352Z AUTO 33005KT 5SM BR CLR 03/03 A3028 RMK AO2 SLP259 T00330033
                 $ =
2018-02-20 22:43 METAR KORE 210343Z AUTO 32003KT 3SM BR CLR 03/03 A3027 RMK AO2 T00330033 $ =
2018-02-20 22:41 METAR KORE 210341Z AUTO 00000KT 1 3/4SM BR CLR 03/03 A3027 RMK AO2 T00330033 $ =
2018-02-20 22:32 METAR KORE 210332Z AUTO 00000KT 1SM BR CLR 03/03 A3027 RMK AO2 T00330033 $ =
2018-02-20 22:30 METAR KORE 210330Z AUTO 00000KT 1 1/2SM BR CLR 04/04 A3027 RMK AO2 T00390039 $ =
2018-02-20 22:01 METAR KORE 210301Z AUTO 00000KT 6SM BR CLR 03/03 A3027 RMK AO2 T00330033 $ =
2018-02-20 21:52 METAR KORE 210252Z AUTO 00000KT 2SM BR CLR 04/04 A3027 RMK AO2 SLP255 T00390039
                 52007 $ =
2018-02-20 21:50 METAR KORE 210250Z AUTO 00000KT 1 1/4SM BR CLR 04/04 A3027 RMK AO2 $ =
2018-02-20 21:07 METAR KORE 210207Z AUTO 00000KT 3/4SM BR CLR 04/04 A3027 RMK AO2 T00440044 $ =
2018-02-20 21:05 METAR KORE 210205Z AUTO 00000KT 1 1/4SM BR CLR 04/04 A3027 RMK AO2 T00440044 $ =
2018-02-20 20:52 METAR KORE 210152Z AUTO 00000KT 2SM BR CLR 04/04 A3027 RMK AO2 VIS 1V5 SLP254
                 T00390039 $ =
2018-02-20 20:13 METAR KORE 210113Z AUTO 17005KT 3SM BR CLR 09/09 A3026 RMK AO2 T00940089 =

Support USWX by starting your Amazon purchase here.